Memphis, Tennessee
Current Conditions -  °F | °C
As of 7:54 AM on Wednesday 28 Jan 2015 (Local Time) from KMEM Reporting Station
Few Clouds Few Clouds  
Wind Chill: -1°   Ceiling: Unl
Heat Index:   Visibility: 10mi
Dew Point: -2°   Wind: 7mph
Humidity: 73%   Direction: 120°ESE
Pressure: 30.28"   Gusts: NA
Location:  35.15°N, 90.05°W
Report Text: KMEM 281354Z 12006KT 10SM FEW250 02/M02 A3028 RMK AO2 SLP255 T00221022 $
Loading
Personal Weather Stations






























Interactive Weather Map New forecast layout! Learn more

10-Day Weather Forecast

Advertisements
Track Severe Weather on mobile